Time;durP1;ratioP1;P1;durP2;ratioP2;P2;SDS_P1;SDS_P2;PMS_P1;PMS_P2;Temp;Humidity;BMP_temperature;BMP_pressure;BME280_temperature;BME280_humidity;BME280_pressure;Samples;Min_cycle;Max_cycle;Signal;HPM_P1;HPM_P2
2021/06/28 00:01:26;;;;;;;10.07;9.05;;;22.60;86.60;;;;;;5050581;28;20022;-61
2021/06/28 00:03:53;;;;;;;10.45;9.40;;;22.60;86.60;;;;;;5041906;28;20029;-63
2021/06/28 00:06:19;;;;;;;10.60;9.50;;;22.60;86.50;;;;;;5042751;28;20025;-61
2021/06/28 00:08:45;;;;;;;12.05;9.43;;;22.60;86.50;;;;;;5042035;28;20025;-61
2021/06/28 00:11:12;;;;;;;10.35;9.25;;;22.60;86.60;;;;;;5040810;28;20027;-61
2021/06/28 00:13:41;;;;;;;9.40;8.40;;;22.60;86.70;;;;;;5042395;28;20104;-61
2021/06/28 00:16:06;;;;;;;9.25;8.32;;;22.50;86.70;;;;;;5042535;28;20025;-61
2021/06/28 00:18:33;;;;;;;10.02;8.68;;;22.50;86.80;;;;;;5042767;28;20036;-61
2021/06/28 00:20:59;;;;;;;9.75;8.68;;;22.50;86.90;;;;;;5042422;28;20033;-62
2021/06/28 00:23:25;;;;;;;9.68;8.68;;;22.50;86.80;;;;;;5049865;28;20049;-61
2021/06/28 00:25:51;;;;;;;10.05;9.05;;;22.50;86.70;;;;;;5061742;28;20524;-61
2021/06/28 00:28:17;;;;;;;12.15;8.75;;;22.40;86.90;;;;;;5062955;28;20123;-61
2021/06/28 00:30:44;;;;;;;14.85;9.52;;;22.40;87.80;;;;;;5060075;28;20350;-64
2021/06/28 00:33:15;;;;;;;9.15;8.25;;;22.40;87.20;;;;;;5056994;28;20028;-64
2021/06/28 00:35:42;;;;;;;9.80;8.80;;;22.40;87.30;;;;;;5057104;28;20017;-64
2021/06/28 00:38:08;;;;;;;9.70;8.70;;;22.30;87.20;;;;;;5056937;28;20017;-64
2021/06/28 00:40:35;;;;;;;10.57;9.32;;;22.30;87.20;;;;;;5056782;28;20684;-64
2021/06/28 00:43:01;;;;;;;10.75;8.98;;;22.30;87.20;;;;;;5056687;28;20033;-64
2021/06/28 00:45:33;;;;;;;9.52;7.72;;;22.30;87.30;;;;;;5056910;28;20029;-64
2021/06/28 00:48:02;;;;;;;8.85;7.95;;;22.30;87.50;;;;;;5057140;28;20029;-65
2021/06/28 00:50:31;;;;;;;10.55;7.80;;;22.30;87.40;;;;;;5056628;28;20079;-64
2021/06/28 00:53:00;;;;;;;10.18;8.40;;;22.30;87.50;;;;;;5056802;28;20457;-66
2021/06/28 00:55:26;;;;;;;9.38;8.48;;;22.30;87.50;;;;;;5056752;28;20017;-64
2021/06/28 00:57:52;;;;;;;8.80;7.55;;;22.30;87.60;;;;;;5056548;28;20105;-64
2021/06/28 01:00:19;;;;;;;8.75;7.85;;;22.30;87.50;;;;;;5053363;28;20099;-64
2021/06/28 01:02:45;;;;;;;9.07;7.50;;;22.30;87.50;;;;;;5045773;28;20022;-64
2021/06/28 01:05:15;;;;;;;8.30;7.50;;;22.30;87.30;;;;;;5035283;28;20535;-64
2021/06/28 01:07:41;;;;;;;9.13;8.23;;;22.20;87.20;;;;;;5035351;28;20080;-64
2021/06/28 01:10:08;;;;;;;8.25;7.35;;;22.20;87.10;;;;;;5036052;28;20036;-64
2021/06/28 01:12:34;;;;;;;8.85;7.63;;;22.20;87.10;;;;;;5035968;28;20032;-64
2021/06/28 01:15:01;;;;;;;7.97;7.18;;;22.20;87.10;;;;;;5039148;28;20030;-64
2021/06/28 01:17:27;;;;;;;8.60;7.20;;;22.10;87.10;;;;;;5055283;28;20021;-64
2021/06/28 01:19:59;;;;;;;8.52;7.28;;;22.10;87.20;;;;;;5056074;28;20048;-64
2021/06/28 01:22:28;;;;;;;8.10;7.25;;;22.10;87.20;;;;;;5055768;28;20045;-66
2021/06/28 01:24:58;;;;;;;7.25;6.55;;;22.10;87.20;;;;;;5036116;28;20021;-64
2021/06/28 01:27:28;;;;;;;9.50;7.32;;;22.10;87.20;;;;;;5035789;28;20470;-64
2021/06/28 01:29:55;;;;;;;8.07;7.28;;;22.10;87.30;;;;;;5035895;28;20041;-64
2021/06/28 01:32:22;;;;;;;8.88;7.97;;;22.10;87.30;;;;;;5035902;28;20029;-65
2021/06/28 01:34:48;;;;;;;8.05;6.75;;;22.00;87.20;;;;;;5036140;28;20093;-64
2021/06/28 01:37:23;;;;;;;11.02;7.28;;;22.00;87.20;;;;;;5042329;28;20095;-64
2021/06/28 01:39:52;;;;;;;9.07;7.60;;;22.00;87.30;;;;;;5056111;28;20377;-65
2021/06/28 01:42:19;;;;;;;7.93;7.10;;;22.00;87.50;;;;;;5055709;28;20029;-64
2021/06/28 01:44:45;;;;;;;8.82;6.65;;;21.90;87.50;;;;;;5055600;28;20072;-65
2021/06/28 01:47:10;;;;;;;8.07;7.15;;;21.90;87.40;;;;;;5055723;28;20044;-64
2021/06/28 01:49:36;;;;;;;7.68;6.88;;;21.90;87.50;;;;;;5054273;28;20461;-65
2021/06/28 01:52:03;;;;;;;8.70;7.80;;;21.90;87.60;;;;;;5055463;28;20032;-65
2021/06/28 01:54:30;;;;;;;8.90;7.00;;;21.90;87.70;;;;;;5055433;28;20021;-65
2021/06/28 01:56:56;;;;;;;8.20;7.18;;;21.90;87.80;;;;;;5055725;28;20021;-65
2021/06/28 01:59:30;;;;;;;7.05;6.35;;;21.80;87.70;;;;;;5054165;28;20029;-65
2021/06/28 02:02:00;;;;;;;7.82;7.03;;;21.90;87.70;;;;;;5055333;28;20443;-64
2021/06/28 02:04:27;;;;;;;10.48;7.78;;;21.80;87.80;;;;;;5055072;28;20020;-64
2021/06/28 02:06:54;;;;;;;8.52;6.88;;;21.90;87.80;;;;;;5055244;28;20040;-64
2021/06/28 02:09:20;;;;;;;8.18;7.38;;;21.80;87.60;;;;;;5055219;28;20381;-64
2021/06/28 02:11:47;;;;;;;10.30;7.65;;;21.90;87.80;;;;;;5054975;28;20033;-64
2021/06/28 02:14:12;;;;;;;7.32;6.63;;;21.90;87.80;;;;;;5055056;28;20385;-65
2021/06/28 02:16:42;;;;;;;9.15;7.80;;;21.90;87.90;;;;;;5055082;28;20028;-64
2021/06/28 02:19:07;;;;;;;8.52;7.57;;;21.90;87.60;;;;;;5055042;28;20021;-64
2021/06/28 02:21:33;;;;;;;9.85;8.68;;;21.90;87.60;;;;;;5054847;28;20381;-65
2021/06/28 02:23:59;;;;;;;8.40;7.45;;;22.00;87.80;;;;;;5054899;28;20388;-65
2021/06/28 02:26:24;;;;;;;7.82;7.03;;;21.90;87.40;;;;;;5054295;28;20450;-65
2021/06/28 02:28:50;;;;;;;8.30;7.38;;;21.90;87.40;;;;;;5054803;28;20412;-65
2021/06/28 02:31:19;;;;;;;9.35;8.00;;;21.90;87.30;;;;;;5054839;28;20036;-64
2021/06/28 02:33:47;;;;;;;8.23;7.43;;;22.00;87.20;;;;;;5054769;28;20056;-65
2021/06/28 02:36:13;;;;;;;8.63;7.72;;;21.90;87.20;;;;;;5053541;28;20112;-65
2021/06/28 02:38:40;;;;;;;9.35;7.90;;;22.00;87.20;;;;;;5054608;28;20500;-65
2021/06/28 02:41:07;;;;;;;8.07;7.28;;;22.00;87.20;;;;;;5054677;28;20028;-64
2021/06/28 02:43:34;;;;;;;8.60;7.45;;;22.00;87.00;;;;;;5054625;28;20112;-65
2021/06/28 02:46:01;;;;;;;7.97;7.18;;;22.00;87.10;;;;;;5054715;28;20056;-64
2021/06/28 02:48:27;;;;;;;7.70;7.00;;;22.00;86.90;;;;;;5054448;28;20033;-65
2021/06/28 02:50:53;;;;;;;8.38;7.57;;;22.00;87.00;;;;;;5054314;28;20025;-64
2021/06/28 02:53:19;;;;;;;8.75;7.88;;;22.00;87.00;;;;;;5054503;28;20071;-65
2021/06/28 02:55:47;;;;;;;8.45;7.65;;;22.00;86.90;;;;;;5054528;28;20021;-65
2021/06/28 02:58:14;;;;;;;8.48;7.57;;;22.10;87.00;;;;;;5054350;28;20096;-64
2021/06/28 03:00:40;;;;;;;7.97;7.18;;;22.10;86.80;;;;;;5052981;28;20039;-65
2021/06/28 03:03:06;;;;;;;9.55;7.50;;;22.20;86.50;;;;;;5035275;28;20021;-64
2021/06/28 03:05:32;;;;;;;8.98;7.53;;;22.20;86.60;;;;;;5054065;28;20159;-65
2021/06/28 03:07:58;;;;;;;9.48;7.50;;;22.20;86.40;;;;;;5054055;28;20111;-65
2021/06/28 03:10:24;;;;;;;7.72;6.93;;;22.20;86.50;;;;;;5053882;28;20051;-65
2021/06/28 03:12:50;;;;;;;9.00;8.10;;;22.20;86.40;;;;;;5054072;28;20025;-65
2021/06/28 03:15:17;;;;;;;7.60;6.90;;;22.20;86.50;;;;;;5053968;28;20025;-64
2021/06/28 03:17:44;;;;;;;8.27;7.45;;;22.30;86.50;;;;;;5054042;28;20032;-64
2021/06/28 03:20:12;;;;;;;8.10;7.30;;;22.40;86.40;;;;;;5053937;28;20109;-64
2021/06/28 03:22:39;;;;;;;8.02;7.22;;;22.50;86.30;;;;;;5053600;28;20045;-64
2021/06/28 03:25:08;;;;;;;8.05;7.25;;;22.60;86.10;;;;;;5054067;28;20040;-64
2021/06/28 03:27:33;;;;;;;7.85;7.05;;;22.70;85.80;;;;;;5047758;28;20029;-64
2021/06/28 03:29:59;;;;;;;8.40;7.20;;;22.80;85.50;;;;;;5052484;28;20035;-65
2021/06/28 03:32:25;;;;;;;9.30;8.00;;;22.90;85.20;;;;;;5052511;28;20020;-65
2021/06/28 03:34:51;;;;;;;9.15;7.78;;;22.90;84.60;;;;;;5053668;28;20029;-64
2021/06/28 03:37:17;;;;;;;10.75;7.82;;;23.00;84.40;;;;;;5052829;28;20047;-64
2021/06/28 03:39:42;;;;;;;8.80;7.90;;;23.00;84.10;;;;;;5053673;28;20021;-65
2021/06/28 03:42:09;;;;;;;9.05;8.15;;;23.00;83.90;;;;;;5053693;28;20032;-64
2021/06/28 03:44:34;;;;;;;7.45;6.65;;;23.00;83.80;;;;;;5053846;28;20031;-64
2021/06/28 03:47:00;;;;;;;9.10;7.70;;;23.00;83.80;;;;;;5053641;28;20029;-64
2021/06/28 03:49:26;;;;;;;8.27;7.47;;;22.90;83.90;;;;;;5053563;28;20029;-65
2021/06/28 03:51:51;;;;;;;8.00;7.00;;;22.90;84.00;;;;;;5053485;28;20107;-64
2021/06/28 03:54:17;;;;;;;7.28;6.57;;;22.90;84.10;;;;;;5053565;28;20044;-64
2021/06/28 03:56:43;;;;;;;8.38;6.88;;;22.90;83.90;;;;;;5053473;28;20523;-64
2021/06/28 03:59:08;;;;;;;8.40;7.45;;;22.90;83.80;;;;;;5053412;28;20384;-65
2021/06/28 04:01:34;;;;;;;8.13;7.32;;;22.90;83.60;;;;;;5053262;28;20025;-64
2021/06/28 04:04:00;;;;;;;9.27;7.65;;;22.90;83.30;;;;;;5052088;28;20473;-64
2021/06/28 04:06:26;;;;;;;8.68;7.28;;;22.90;83.10;;;;;;5053470;28;20029;-64
2021/06/28 04:08:51;;;;;;;8.50;7.60;;;22.90;83.10;;;;;;5052523;28;20028;-65
2021/06/28 04:11:18;;;;;;;7.70;7.00;;;22.90;83.10;;;;;;5053335;28;20033;-64
2021/06/28 04:13:45;;;;;;;8.50;7.40;;;22.90;83.10;;;;;;5053424;28;20017;-65
2021/06/28 04:16:12;;;;;;;7.20;6.50;;;22.80;83.10;;;;;;5053347;28;20083;-64
2021/06/28 04:18:37;;;;;;;8.30;7.50;;;22.80;82.90;;;;;;5053197;28;20103;-65
2021/06/28 04:21:03;;;;;;;8.55;7.32;;;22.80;82.80;;;;;;5053260;28;20112;-64
2021/06/28 04:23:29;;;;;;;7.60;6.88;;;22.80;82.80;;;;;;5053068;28;20045;-64
2021/06/28 04:25:55;;;;;;;10.23;6.90;;;22.80;82.90;;;;;;5053256;28;20032;-65
2021/06/28 04:28:20;;;;;;;8.02;7.22;;;22.80;82.70;;;;;;5052917;28;20075;-65
2021/06/28 04:30:47;;;;;;;10.57;7.20;;;22.80;82.30;;;;;;5053145;28;20029;-64
2021/06/28 04:33:12;;;;;;;7.53;6.70;;;22.80;82.70;;;;;;5053209;28;20083;-64
2021/06/28 04:35:38;;;;;;;8.45;6.80;;;22.90;82.60;;;;;;5053115;28;20025;-64
2021/06/28 04:38:04;;;;;;;7.55;6.57;;;22.90;82.30;;;;;;5053081;28;20021;-64
2021/06/28 04:40:30;;;;;;;7.45;6.75;;;23.00;82.20;;;;;;5052827;28;20071;-64
2021/06/28 04:42:57;;;;;;;7.47;6.78;;;23.00;82.10;;;;;;5053106;28;20508;-65
2021/06/28 04:45:24;;;;;;;8.30;6.75;;;23.00;81.80;;;;;;5053165;28;20488;-64
2021/06/28 04:47:50;;;;;;;7.88;6.82;;;23.00;81.50;;;;;;5053534;28;20017;-65
2021/06/28 04:50:17;;;;;;;9.55;6.60;;;23.10;81.40;;;;;;5056822;28;20025;-65
2021/06/28 04:52:43;;;;;;;6.75;6.05;;;23.10;81.20;;;;;;5056731;28;20017;-64
2021/06/28 04:55:13;;;;;;;7.75;6.95;;;23.10;80.90;;;;;;5056660;28;20358;-64
2021/06/28 04:57:39;;;;;;;6.95;6.25;;;23.10;80.50;;;;;;5056656;28;20067;-65
2021/06/28 05:00:08;;;;;;;7.55;6.75;;;23.00;80.50;;;;;;5056573;28;20061;-64
2021/06/28 05:02:33;;;;;;;8.05;6.70;;;23.00;80.40;;;;;;5056207;28;20033;-65
2021/06/28 05:04:59;;;;;;;6.90;6.20;;;22.90;80.30;;;;;;5056416;28;20496;-65
2021/06/28 05:07:25;;;;;;;7.60;6.75;;;22.90;80.40;;;;;;5056451;28;20025;-64
2021/06/28 05:09:50;;;;;;;7.25;6.47;;;22.90;80.50;;;;;;5056692;28;20025;-64
2021/06/28 05:12:16;;;;;;;8.13;7.32;;;22.90;80.50;;;;;;5056280;28;20021;-64
2021/06/28 05:14:43;;;;;;;7.68;6.90;;;22.90;80.20;;;;;;5056262;28;20078;-64
2021/06/28 05:17:09;;;;;;;8.15;7.35;;;23.00;80.70;;;;;;5056257;28;20385;-64
2021/06/28 05:19:35;;;;;;;8.07;7.25;;;23.00;80.40;;;;;;5056181;28;20021;-64
2021/06/28 05:22:02;;;;;;;8.07;7.25;;;23.10;80.20;;;;;;5056008;28;20118;-65
2021/06/28 05:24:27;;;;;;;7.22;6.53;;;23.10;80.00;;;;;;5056038;28;20025;-65
2021/06/28 05:26:53;;;;;;;9.85;7.47;;;23.10;80.00;;;;;;5056093;28;20027;-65
2021/06/28 05:29:19;;;;;;;8.80;7.90;;;23.10;79.90;;;;;;5055757;28;20083;-65
2021/06/28 05:31:45;;;;;;;8.50;7.60;;;23.20;79.90;;;;;;5055859;28;20025;-64
2021/06/28 05:34:10;;;;;;;8.68;7.43;;;23.20;79.80;;;;;;5055947;28;20017;-65
2021/06/28 05:36:36;;;;;;;9.10;7.53;;;23.20;79.80;;;;;;5055784;28;20079;-64
2021/06/28 05:39:04;;;;;;;8.52;7.38;;;23.20;79.50;;;;;;5055809;28;20023;-65
2021/06/28 05:41:30;;;;;;;8.30;7.38;;;23.20;79.60;;;;;;5055780;28;20033;-64
2021/06/28 05:43:55;;;;;;;8.85;6.55;;;23.20;79.50;;;;;;5055736;28;20021;-64
2021/06/28 05:46:21;;;;;;;8.50;7.65;;;23.20;79.20;;;;;;5055656;28;20027;-64
2021/06/28 05:48:47;;;;;;;7.43;6.72;;;23.30;79.40;;;;;;5055734;28;20529;-64
2021/06/28 05:51:13;;;;;;;7.28;6.57;;;23.30;79.20;;;;;;5055495;28;20025;-64
2021/06/28 05:53:43;;;;;;;7.60;6.80;;;23.30;79.10;;;;;;5055262;28;20036;-65
2021/06/28 05:56:09;;;;;;;7.78;6.97;;;23.30;79.40;;;;;;5055460;28;20033;-64
2021/06/28 05:58:35;;;;;;;8.38;7.15;;;23.30;79.50;;;;;;5055370;28;20025;-65
2021/06/28 06:01:02;;;;;;;7.50;6.80;;;23.40;79.30;;;;;;5054372;28;20032;-65
2021/06/28 06:03:28;;;;;;;7.05;6.35;;;23.50;79.40;;;;;;5055395;28;20028;-64
2021/06/28 06:05:54;;;;;;;7.40;6.68;;;23.50;79.10;;;;;;5055219;28;20032;-64
2021/06/28 06:08:24;;;;;;;7.90;7.05;;;23.60;78.80;;;;;;5055474;28;20511;-64
2021/06/28 06:10:54;;;;;;;7.40;6.70;;;23.60;78.60;;;;;;5055078;28;20023;-65
2021/06/28 06:13:20;;;;;;;7.15;6.45;;;23.60;78.50;;;;;;5055366;28;20017;-64
2021/06/28 06:15:46;;;;;;;6.93;6.22;;;23.70;78.60;;;;;;5055107;28;20436;-65
2021/06/28 06:18:13;;;;;;;8.02;6.88;;;23.80;78.60;;;;;;5055162;28;20032;-64
2021/06/28 06:20:39;;;;;;;8.07;7.35;;;23.90;78.20;;;;;;5054954;28;20061;-64
2021/06/28 06:23:05;;;;;;;7.82;7.10;;;24.10;78.00;;;;;;5054973;28;20098;-65
2021/06/28 06:25:31;;;;;;;7.80;7.00;;;24.20;77.50;;;;;;5055101;28;20028;-65
2021/06/28 06:27:56;;;;;;;8.05;7.25;;;24.50;77.50;;;;;;5054932;28;20112;-64
2021/06/28 06:30:22;;;;;;;7.75;6.95;;;24.60;76.70;;;;;;5055028;28;20047;-64
2021/06/28 06:32:48;;;;;;;8.10;7.25;;;24.80;75.90;;;;;;5054678;28;20033;-65
2021/06/28 06:35:15;;;;;;;8.00;7.20;;;25.00;75.40;;;;;;5054802;28;20067;-64
2021/06/28 06:37:41;;;;;;;9.13;8.23;;;25.20;74.40;;;;;;5054973;28;20044;-65
2021/06/28 06:40:08;;;;;;;8.57;7.72;;;25.30;73.70;;;;;;5055002;28;20025;-64
2021/06/28 06:42:34;;;;;;;8.82;7.93;;;25.40;72.90;;;;;;5054528;28;20394;-64
2021/06/28 06:45:00;;;;;;;9.13;8.15;;;25.40;72.90;;;;;;5054575;28;20049;-65
2021/06/28 06:47:26;;;;;;;8.30;7.50;;;25.50;72.40;;;;;;5054840;28;20076;-65
2021/06/28 06:49:52;;;;;;;8.82;7.93;;;25.50;72.00;;;;;;5054710;28;20028;-65
2021/06/28 06:52:17;;;;;;;9.25;8.18;;;25.50;71.50;;;;;;5054704;28;20369;-65
2021/06/28 06:54:44;;;;;;;8.38;7.18;;;25.50;70.80;;;;;;5054498;28;20477;-64
2021/06/28 06:57:10;;;;;;;8.38;7.57;;;25.50;70.70;;;;;;5054358;28;20013;-65
2021/06/28 06:59:36;;;;;;;9.18;7.90;;;25.40;70.70;;;;;;5054510;28;20032;-65
2021/06/28 07:02:02;;;;;;;8.63;7.82;;;25.40;70.70;;;;;;5054196;28;20027;-65
2021/06/28 07:04:28;;;;;;;6.72;6.13;;;25.40;71.00;;;;;;5053969;28;20092;-64
2021/06/28 07:06:54;;;;;;;5.95;5.35;;;25.50;71.50;;;;;;5054150;28;20083;-65
2021/06/28 07:09:19;;;;;;;5.55;5.05;;;25.60;71.70;;;;;;5054166;28;20027;-65
2021/06/28 07:11:45;;;;;;;6.13;5.00;;;25.70;70.70;;;;;;5053891;28;20113;-65
2021/06/28 07:14:11;;;;;;;5.88;5.38;;;25.70;70.40;;;;;;5054118;28;20044;-65
2021/06/28 07:16:37;;;;;;;5.22;4.72;;;25.80;70.50;;;;;;5053996;28;20108;-65
2021/06/28 07:19:05;;;;;;;6.15;5.32;;;25.80;70.40;;;;;;5054021;28;20098;-65
2021/06/28 07:21:34;;;;;;;7.25;5.40;;;25.90;70.30;;;;;;5053992;28;20353;-65
2021/06/28 07:24:00;;;;;;;5.75;5.18;;;26.00;70.30;;;;;;5052639;28;20064;-65
2021/06/28 07:26:26;;;;;;;6.18;4.80;;;26.00;70.00;;;;;;5053853;28;20477;-64
2021/06/28 07:28:53;;;;;;;7.15;5.03;;;26.00;69.40;;;;;;5054095;28;20025;-65
2021/06/28 07:31:19;;;;;;;5.30;4.80;;;26.00;69.20;;;;;;5051641;28;20125;-65
2021/06/28 07:33:45;;;;;;;6.15;4.90;;;26.00;69.60;;;;;;5038164;28;20016;-65
2021/06/28 07:36:11;;;;;;;6.22;4.75;;;26.00;69.70;;;;;;5053680;28;20025;-64
2021/06/28 07:38:38;;;;;;;4.95;4.45;;;26.00;69.50;;;;;;5053490;28;20025;-65
2021/06/28 07:41:05;;;;;;;5.20;4.25;;;26.00;69.20;;;;;;5053770;28;20032;-65
2021/06/28 07:43:31;;;;;;;5.63;4.57;;;26.00;69.20;;;;;;5053582;28;20080;-65
2021/06/28 07:45:56;;;;;;;5.03;4.53;;;26.00;69.30;;;;;;5053544;28;20036;-65
2021/06/28 07:48:22;;;;;;;6.00;4.90;;;26.10;69.80;;;;;;5053512;28;20380;-65
2021/06/28 07:50:48;;;;;;;5.32;4.75;;;26.00;69.60;;;;;;5053461;28;20029;-65
2021/06/28 07:53:15;;;;;;;4.40;4.00;;;26.00;69.20;;;;;;5053611;28;20021;-65
2021/06/28 07:55:42;;;;;;;5.05;4.55;;;26.00;69.60;;;;;;5053493;28;20036;-65
2021/06/28 07:58:07;;;;;;;4.82;4.32;;;26.00;69.80;;;;;;5053548;28;20025;-65
2021/06/28 08:00:33;;;;;;;5.40;4.90;;;26.00;69.70;;;;;;5053400;28;20362;-64
2021/06/28 08:03:00;;;;;;;5.53;4.00;;;26.00;69.80;;;;;;5053438;28;20079;-65
2021/06/28 08:05:26;;;;;;;4.50;4.10;;;26.00;69.10;;;;;;5053159;28;20032;-65
2021/06/28 08:07:52;;;;;;;7.10;4.43;;;26.00;68.60;;;;;;5053296;28;20036;-65
2021/06/28 08:10:18;;;;;;;4.93;4.20;;;26.00;69.10;;;;;;5053203;28;20435;-64
2021/06/28 08:12:48;;;;;;;4.68;4.10;;;26.00;69.10;;;;;;5053316;28;20025;-65
2021/06/28 08:15:17;;;;;;;5.47;4.07;;;26.00;69.00;;;;;;5053595;28;20032;-65
2021/06/28 08:17:43;;;;;;;4.82;4.32;;;26.00;69.20;;;;;;5053363;28;20025;-65
2021/06/28 08:20:10;;;;;;;5.45;4.32;;;26.00;69.20;;;;;;5053212;28;20022;-65
2021/06/28 08:22:36;;;;;;;5.45;4.13;;;26.00;69.10;;;;;;5053213;28;20362;-65
2021/06/28 08:25:04;;;;;;;8.30;4.20;;;26.00;68.80;;;;;;5057546;28;20036;-64
2021/06/28 08:27:29;;;;;;;5.55;4.40;;;25.90;69.00;;;;;;5056840;28;20013;-64
2021/06/28 08:29:55;;;;;;;5.43;3.67;;;26.00;68.90;;;;;;5057160;28;20056;-65
2021/06/28 08:32:20;;;;;;;4.78;4.38;;;25.90;68.50;;;;;;5056855;28;20462;-65
2021/06/28 08:34:46;;;;;;;4.50;4.10;;;26.00;68.80;;;;;;5057085;28;20112;-65
2021/06/28 08:37:12;;;;;;;5.68;4.10;;;26.00;69.10;;;;;;5056842;28;20446;-65
2021/06/28 08:39:38;;;;;;;4.35;3.85;;;26.00;69.00;;;;;;5056916;28;20503;-65
2021/06/28 08:42:06;;;;;;;4.13;3.72;;;26.00;68.80;;;;;;5056167;28;20024;-65
2021/06/28 08:44:33;;;;;;;5.95;4.22;;;26.10;68.30;;;;;;5055435;28;20021;-65
2021/06/28 08:46:59;;;;;;;4.32;3.80;;;26.10;68.40;;;;;;5055526;28;20025;-65
2021/06/28 08:49:26;;;;;;;4.82;4.22;;;26.00;68.10;;;;;;5055437;28;20024;-65
2021/06/28 08:51:52;;;;;;;4.25;3.83;;;26.00;67.70;;;;;;5055397;28;20432;-65
2021/06/28 08:54:18;;;;;;;5.15;4.20;;;26.00;68.00;;;;;;5055483;28;20025;-65
2021/06/28 08:56:46;;;;;;;4.18;3.78;;;25.90;68.20;;;;;;5055270;28;20025;-64
2021/06/28 08:59:12;;;;;;;4.00;3.60;;;25.90;68.40;;;;;;5055941;28;20020;-65
2021/06/28 09:01:39;;;;;;;4.57;4.10;;;25.90;68.40;;;;;;5056591;28;20476;-65
2021/06/28 09:04:06;;;;;;;4.93;4.43;;;25.90;68.40;;;;;;5056411;28;20091;-65
2021/06/28 09:06:32;;;;;;;4.53;4.10;;;25.90;68.60;;;;;;5056401;28;20025;-65
2021/06/28 09:09:01;;;;;;;4.60;3.90;;;25.90;68.50;;;;;;5056545;28;20025;-65
2021/06/28 09:11:27;;;;;;;4.65;4.20;;;25.80;68.40;;;;;;5056414;28;20029;-65
2021/06/28 09:13:55;;;;;;;5.20;3.80;;;25.80;68.50;;;;;;5056507;28;20056;-65
2021/06/28 09:16:26;;;;;;;4.55;3.83;;;25.80;68.50;;;;;;5056291;28;20029;-65
2021/06/28 09:19:04;;;;;;;3.65;3.35;;;25.80;68.80;;;;;;5056395;28;20075;-65
2021/06/28 09:21:44;;;;;;;4.78;3.78;;;25.80;68.60;;;;;;5055390;28;20032;-65
2021/06/28 09:24:49;;;;;;;7.07;4.18;;;25.80;68.40;;;;;;5036201;28;20028;-65
2021/06/28 09:27:20;;;;;;;4.55;3.65;;;25.80;68.10;;;;;;5035138;28;20033;-65
2021/06/28 09:29:52;;;;;;;5.50;4.18;;;25.80;68.10;;;;;;5036346;28;20028;-65
2021/06/28 09:32:19;;;;;;;4.72;4.22;;;25.80;68.10;;;;;;5035957;28;20108;-65
2021/06/28 09:34:47;;;;;;;6.47;4.00;;;25.80;67.60;;;;;;5041101;28;20043;-64
2021/06/28 09:37:18;;;;;;;5.32;4.20;;;25.80;67.70;;;;;;5055934;28;20027;-65
2021/06/28 09:39:46;;;;;;;5.55;3.38;;;25.80;67.90;;;;;;5055911;28;20025;-65
2021/06/28 09:42:18;;;;;;;7.07;3.83;;;25.80;68.30;;;;;;5055765;28;20477;-65
2021/06/28 09:45:09;;;;;;;4.22;3.83;;;25.80;68.20;;;;;;5055595;28;20025;-64
2021/06/28 09:47:35;;;;;;;5.55;4.43;;;25.80;68.20;;;;;;5056083;28;20527;-65
2021/06/28 09:50:09;;;;;;;4.40;3.63;;;25.90;68.10;;;;;;5055858;28;20025;-65
2021/06/28 09:52:46;;;;;;;4.78;4.30;;;25.90;67.50;;;;;;5055636;28;20083;-65
2021/06/28 09:55:34;;;;;;;4.43;3.92;;;25.90;67.90;;;;;;5055668;28;20040;-64
2021/06/28 09:58:10;;;;;;;4.88;3.90;;;25.90;67.70;;;;;;5055711;28;20480;-65
2021/06/28 10:00:43;;;;;;;5.50;3.90;;;25.90;68.10;;;;;;5055783;28;20060;-64
2021/06/28 10:03:39;;;;;;;5.35;3.88;;;25.90;67.60;;;;;;5055489;28;20032;-65
2021/06/28 10:06:27;;;;;;;5.28;4.15;;;25.90;67.00;;;;;;5055177;28;20029;-65
2021/06/28 10:09:04;;;;;;;4.97;4.10;;;25.90;66.80;;;;;;5055256;28;20112;-65
2021/06/28 10:11:30;;;;;;;4.70;4.20;;;25.80;66.60;;;;;;5055212;28;20025;-64
2021/06/28 10:14:06;;;;;;;4.85;4.28;;;25.80;66.80;;;;;;5055446;28;20049;-65
2021/06/28 10:16:36;;;;;;;6.05;4.15;;;25.80;67.30;;;;;;5055170;28;20021;-65
2021/06/28 10:19:05;;;;;;;5.25;3.72;;;25.70;67.60;;;;;;5055114;28;20029;-65
2021/06/28 10:21:32;;;;;;;4.53;3.80;;;25.70;67.60;;;;;;5054147;28;20025;-64
2021/06/28 10:23:59;;;;;;;6.40;3.70;;;25.70;68.20;;;;;;5035238;28;20025;-65
2021/06/28 10:26:25;;;;;;;4.78;3.92;;;25.70;67.60;;;;;;5034903;28;20028;-65
2021/06/28 10:28:52;;;;;;;4.95;4.00;;;25.70;67.60;;;;;;5035048;28;20037;-65
2021/06/28 10:31:18;;;;;;;4.90;3.80;;;25.80;67.60;;;;;;5034763;28;20032;-64
2021/06/28 10:33:58;;;;;;;4.32;3.90;;;25.80;67.40;;;;;;5034914;28;20108;-65
2021/06/28 10:36:36;;;;;;;9.50;7.50;;;25.80;67.30;;;;;;5044267;28;20426;-65
2021/06/28 10:39:05;;;;;;;7.25;5.28;;;25.90;67.50;;;;;;5054222;28;20512;-65
2021/06/28 10:41:38;;;;;;;4.82;4.00;;;25.90;67.80;;;;;;5034650;28;20537;-64
2021/06/28 10:44:10;;;;;;;6.65;4.57;;;26.00;67.50;;;;;;5034337;28;20509;-64
2021/06/28 10:46:37;;;;;;;5.45;4.43;;;26.00;67.50;;;;;;5034055;28;20026;-65
2021/06/28 10:49:04;;;;;;;4.80;4.25;;;25.90;67.10;;;;;;5034560;28;20026;-64
2021/06/28 10:51:49;;;;;;;4.63;4.10;;;26.00;66.90;;;;;;5034600;28;20454;-64
2021/06/28 10:54:30;;;;;;;4.15;3.55;;;26.00;67.10;;;;;;5034664;28;20034;-64
2021/06/28 10:56:57;;;;;;;3.78;3.42;;;26.00;66.80;;;;;;5034903;28;20366;-65
2021/06/28 10:59:25;;;;;;;4.55;3.78;;;26.00;67.00;;;;;;5034347;28;20026;-65
2021/06/28 11:02:02;;;;;;;5.97;4.03;;;26.00;66.50;;;;;;5034374;28;20033;-65
2021/06/28 11:04:59;;;;;;;4.70;4.22;;;26.00;66.20;;;;;;5034228;28;20076;-65
2021/06/28 11:07:27;;;;;;;4.95;4.43;;;26.00;66.10;;;;;;5033894;28;20041;-65
2021/06/28 11:09:57;;;;;;;4.78;4.32;;;25.90;66.10;;;;;;5034272;28;20384;-64
2021/06/28 11:12:28;;;;;;;4.22;3.83;;;25.90;66.20;;;;;;5034430;28;20307;-65
2021/06/28 11:14:58;;;;;;;4.97;4.47;;;25.90;66.10;;;;;;5034399;28;20022;-64
2021/06/28 11:17:50;;;;;;;4.68;4.20;;;25.80;65.80;;;;;;5034230;28;20075;-65
2021/06/28 11:20:32;;;;;;;5.97;4.85;;;25.80;66.10;;;;;;5034148;28;20037;-65
2021/06/28 11:23:03;;;;;;;5.65;5.15;;;25.90;66.20;;;;;;5046626;28;20056;-65
2021/06/28 11:25:41;;;;;;;5.35;4.85;;;25.80;66.50;;;;;;5054144;28;20024;-64
2021/06/28 11:28:28;;;;;;;5.30;4.35;;;25.80;66.20;;;;;;5053798;28;20033;-65
2021/06/28 11:31:05;;;;;;;4.95;4.45;;;25.80;66.50;;;;;;5054060;28;20025;-65
2021/06/28 11:34:00;;;;;;;5.68;4.50;;;25.80;66.60;;;;;;5033756;28;20037;-66
2021/06/28 11:36:35;;;;;;;3.95;3.55;;;25.80;66.70;;;;;;5054074;28;20033;-64
2021/06/28 11:39:05;;;;;;;5.03;3.75;;;25.80;66.90;;;;;;5054012;28;20072;-65
2021/06/28 11:41:31;;;;;;;4.57;3.92;;;25.80;66.80;;;;;;5053652;28;20108;-65
2021/06/28 11:44:02;;;;;;;5.03;3.83;;;25.80;66.80;;;;;;5053539;28;20063;-65
2021/06/28 11:46:30;;;;;;;5.20;3.83;;;25.80;66.60;;;;;;5053557;28;20067;-65
2021/06/28 11:49:02;;;;;;;5.30;4.07;;;25.80;66.70;;;;;;5053722;28;20037;-65
2021/06/28 11:51:30;;;;;;;6.00;3.90;;;25.80;66.60;;;;;;5053873;28;20124;-65
2021/06/28 11:54:03;;;;;;;4.35;3.95;;;25.80;66.40;;;;;;5053606;28;20017;-65
2021/06/28 11:56:31;;;;;;;4.43;4.03;;;25.80;66.70;;;;;;5053464;28;20024;-65
2021/06/28 11:59:03;;;;;;;4.95;4.07;;;25.80;67.10;;;;;;5052573;28;20017;-65
2021/06/28 12:01:34;;;;;;;4.75;4.00;;;25.80;67.10;;;;;;5053308;28;20029;-65
2021/06/28 12:04:01;;;;;;;4.32;3.92;;;25.80;67.00;;;;;;5053456;28;20033;-65
2021/06/28 12:06:37;;;;;;;4.20;3.80;;;25.80;67.00;;;;;;5051946;28;20070;-65
2021/06/28 12:09:09;;;;;;;4.20;3.80;;;25.80;66.60;;;;;;5053394;28;20090;-65
2021/06/28 12:11:45;;;;;;;4.43;4.03;;;25.80;66.70;;;;;;5053365;28;20033;-64
2021/06/28 12:14:11;;;;;;;4.07;3.65;;;25.70;66.90;;;;;;5053395;28;20021;-65
2021/06/28 12:16:42;;;;;;;5.18;3.90;;;25.70;66.90;;;;;;5053089;28;20423;-65
2021/06/28 12:19:10;;;;;;;4.97;4.47;;;25.70;66.40;;;;;;5053492;28;20017;-65
2021/06/28 12:21:39;;;;;;;4.78;4.10;;;25.70;66.50;;;;;;5051585;28;20021;-65
2021/06/28 12:24:11;;;;;;;4.63;4.13;;;25.70;66.50;;;;;;5033682;28;20030;-65
2021/06/28 12:26:39;;;;;;;5.50;4.65;;;25.70;66.30;;;;;;5033300;28;20049;-65
2021/06/28 12:29:36;;;;;;;4.78;4.30;;;25.70;66.50;;;;;;5033570;28;20465;-65
2021/06/28 12:32:25;;;;;;;5.03;4.53;;;25.70;66.20;;;;;;5032360;28;20043;-65
2021/06/28 12:34:56;;;;;;;5.38;4.40;;;25.70;66.40;;;;;;5033564;28;20033;-65
2021/06/28 12:37:25;;;;;;;5.25;4.40;;;25.70;66.00;;;;;;5050355;28;20032;-64
2021/06/28 12:39:52;;;;;;;5.30;4.20;;;25.70;66.10;;;;;;5053213;28;20033;-64
2021/06/28 12:42:22;;;;;;;6.55;3.97;;;25.80;65.80;;;;;;5053359;28;20501;-64
2021/06/28 12:44:50;;;;;;;4.47;3.88;;;25.80;65.80;;;;;;5046528;28;20025;-65
2021/06/28 12:47:19;;;;;;;4.25;3.60;;;25.80;65.90;;;;;;5045473;28;20025;-65
2021/06/28 12:49:45;;;;;;;4.88;4.10;;;25.80;65.90;;;;;;5035260;28;20083;-65
2021/06/28 12:52:36;;;;;;;4.20;3.80;;;25.90;66.40;;;;;;5043792;28;20029;-64